Terminal Aerodrome Forecast
Issued by NWS

Home | Current Version | Previous Version | Text Only | Print | Product List | Glossary On
Versions: 1 2 3 4 5 6 7 8 9 10 11 12 13 14 15 16 17
000
FTAK31 PAJN 311739
TAFAJN
TAF
PAJN 311739Z 3118/0118 VRB05KT P6SM -RA VCFG FEW003 SCT006 OVC040
      TEMPO 3118/3120 4SM -RA BR SCT001 SCT006 OVC030
     FM312000 11005KT 5SM -RA SCT020 BKN030
     FM010600 VRB05KT P6SM VCSH SCT010 BKN050
     FM011600 24006KT P6SM VCSH SCT025 BKN040 BKN060=

USA.gov is the U.S. government's official web portal to all federal, state and local government web resources and services.